Time,TemperatureF,DewpointF,PressureIn,WindDirection,WindDirectionDegrees,WindSpeedMPH,WindSpeedGustMPH,Humidity,HourlyPrecipIn,Conditions,Clouds,dailyrainin,SoftwareType,DateUTC
2013-05-11 00:01:00,55.4,28.2,27.52,NNW,346,4.0,4.9,35,0.00,,---,0.00,VWS V14.01,2013-05-11 05:01:00,
2013-05-11 00:06:00,55.2,28.8,27.52,North,353,3.6,5.4,36,0.00,,---,0.00,VWS V14.01,2013-05-11 05:06:00,
2013-05-11 00:11:00,55.8,28.5,27.52,North,353,4.0,4.0,35,0.00,,---,0.00,VWS V14.01,2013-05-11 05:11:00,
2013-05-11 00:16:00,55.0,28.6,27.52,North,353,4.0,4.0,36,0.00,,---,0.00,VWS V14.01,2013-05-11 05:16:00,
2013-05-11 00:21:00,55.2,28.8,27.52,North,0,4.0,4.0,36,0.00,,---,0.00,VWS V14.01,2013-05-11 05:21:00,
2013-05-11 00:26:00,55.2,28.8,27.52,North,353,3.6,4.0,36,0.00,,---,0.00,VWS V14.01,2013-05-11 05:26:00,
2013-05-11 00:31:00,55.6,28.4,27.49,North,357,5.4,5.4,35,0.00,,---,0.00,VWS V14.01,2013-05-11 05:31:00,
2013-05-11 00:36:00,56.1,28.9,27.49,North,353,5.4,8.7,35,0.00,,---,0.00,VWS V14.01,2013-05-11 05:36:00,
2013-05-11 00:41:00,56.3,29.0,27.49,NNW,341,4.0,4.0,35,0.00,,---,0.00,VWS V14.01,2013-05-11 05:41:00,
2013-05-11 00:46:00,56.5,29.2,27.49,North,0,5.4,5.4,35,0.00,,---,0.00,VWS V14.01,2013-05-11 05:46:00,
2013-05-11 00:51:00,56.7,29.3,27.52,North,357,5.4,5.4,35,0.00,,---,0.00,VWS V14.01,2013-05-11 05:51:00,
2013-05-11 00:56:00,57.2,29.8,27.52,North,0,5.8,5.8,35,0.00,,---,0.00,VWS V14.01,2013-05-11 05:56:00,
2013-05-11 01:01:00,56.8,29.5,27.52,North,0,5.8,6.3,35,0.00,,---,0.00,VWS V14.01,2013-05-11 06:01:00,
2013-05-11 01:06:00,56.7,29.3,27.52,North,357,6.3,6.3,35,0.00,,---,0.00,VWS V14.01,2013-05-11 06:06:00,
2013-05-11 01:11:00,56.5,29.2,27.52,North,0,6.3,6.3,35,0.00,,---,0.00,VWS V14.01,2013-05-11 06:11:00,
2013-05-11 01:17:00,56.3,29.0,27.52,North,0,6.3,6.3,35,0.00,,---,0.00,VWS V14.01,2013-05-11 06:17:00,
2013-05-11 01:22:00,56.3,29.0,27.52,North,0,6.3,6.3,35,0.00,,---,0.00,VWS V14.01,2013-05-11 06:22:00,
2013-05-11 01:27:00,56.1,28.9,27.52,North,1,5.8,5.8,35,0.00,,---,0.00,VWS V14.01,2013-05-11 06:27:00,
2013-05-11 01:32:00,55.6,28.4,27.52,North,0,5.8,5.8,35,0.00,,---,0.00,VWS V14.01,2013-05-11 06:32:00,
2013-05-11 01:37:00,55.4,28.2,27.52,NNW,345,5.8,6.3,35,0.00,,---,0.00,VWS V14.01,2013-05-11 06:37:00,
2013-05-11 01:42:00,55.0,28.6,27.52,North,353,5.4,6.3,36,0.00,,---,0.00,VWS V14.01,2013-05-11 06:42:00,
2013-05-11 01:47:00,54.9,28.4,27.55,North,353,5.8,5.8,36,0.00,,---,0.00,VWS V14.01,2013-05-11 06:47:00,
2013-05-11 01:52:00,55.0,28.6,27.55,North,0,5.4,5.8,36,0.00,,---,0.00,VWS V14.01,2013-05-11 06:52:00,
2013-05-11 01:57:00,54.7,28.3,27.55,North,0,4.9,4.9,36,0.00,,---,0.00,VWS V14.01,2013-05-11 06:57:00,
2013-05-11 02:02:00,54.7,28.3,27.55,North,0,5.4,5.4,36,0.00,,---,0.00,VWS V14.01,2013-05-11 07:02:00,
2013-05-11 02:07:00,54.7,28.3,27.55,North,0,5.4,5.4,36,0.00,,---,0.00,VWS V14.01,2013-05-11 07:07:00,
2013-05-11 02:12:00,55.4,28.2,27.55,North,353,6.3,6.3,35,0.00,,---,0.00,VWS V14.01,2013-05-11 07:12:00,
2013-05-11 02:17:00,55.6,28.4,27.55,North,353,6.3,6.7,35,0.00,,---,0.00,VWS V14.01,2013-05-11 07:17:00,
2013-05-11 02:22:00,55.9,28.7,27.55,North,0,6.3,6.3,35,0.00,,---,0.00,VWS V14.01,2013-05-11 07:22:00,
2013-05-11 02:27:00,55.8,28.5,27.55,North,357,5.8,6.3,35,0.00,,---,0.00,VWS V14.01,2013-05-11 07:27:00,
2013-05-11 02:32:00,55.8,28.5,27.55,North,3,5.4,5.4,35,0.00,,---,0.00,VWS V14.01,2013-05-11 07:32:00,
2013-05-11 02:37:00,55.4,28.2,27.55,North,0,4.0,4.0,35,0.00,,---,0.00,VWS V14.01,2013-05-11 07:37:00,
2013-05-11 02:42:00,55.8,28.5,27.55,North,0,5.4,5.4,35,0.00,,---,0.00,VWS V14.01,2013-05-11 07:42:00,
2013-05-11 02:47:00,55.9,28.7,27.55,North,357,5.8,5.8,35,0.00,,---,0.00,VWS V14.01,2013-05-11 07:47:00,
2013-05-11 02:52:00,56.1,28.9,27.55,North,0,5.8,5.8,35,0.00,,---,0.00,VWS V14.01,2013-05-11 07:52:00,
2013-05-11 02:57:00,55.9,28.7,27.55,North,353,5.8,7.2,35,0.00,,---,0.00,VWS V14.01,2013-05-11 07:57:00,
2013-05-11 03:02:00,55.8,28.5,27.55,North,353,6.3,7.6,35,0.00,,---,0.00,VWS V14.01,2013-05-11 08:02:00,
2013-05-11 03:07:00,55.9,28.7,27.55,North,7,6.7,6.7,35,0.00,,---,0.00,VWS V14.01,2013-05-11 08:07:00,
2013-05-11 03:12:00,55.9,28.7,27.55,North,0,5.4,6.3,35,0.00,,---,0.00,VWS V14.01,2013-05-11 08:12:00,
2013-05-11 03:18:00,55.9,28.7,27.55,North,349,8.3,8.3,35,0.00,,---,0.00,VWS V14.01,2013-05-11 08:18:00,
2013-05-11 03:23:00,55.8,28.5,27.55,North,357,8.7,8.7,35,0.00,,---,0.00,VWS V14.01,2013-05-11 08:23:00,
2013-05-11 03:28:00,55.8,28.5,27.55,North,353,8.7,8.7,35,0.00,,---,0.00,VWS V14.01,2013-05-11 08:28:00,
2013-05-11 03:33:00,55.4,28.2,27.55,North,357,8.7,10.1,35,0.00,,---,0.00,VWS V14.01,2013-05-11 08:33:00,
2013-05-11 03:38:00,55.6,28.4,27.55,North,0,8.3,10.1,35,0.00,,---,0.00,VWS V14.01,2013-05-11 08:38:00,
2013-05-11 03:43:00,54.9,28.4,27.55,North,4,8.3,8.3,36,0.00,,---,0.00,VWS V14.01,2013-05-11 08:43:00,
2013-05-11 03:48:00,54.7,28.3,27.55,North,357,8.7,8.7,36,0.00,,---,0.00,VWS V14.01,2013-05-11 08:48:00,
2013-05-11 03:53:00,54.3,28.0,27.55,North,0,6.3,6.3,36,0.00,,---,0.00,VWS V14.01,2013-05-11 08:53:00,
2013-05-11 03:58:00,54.0,27.6,27.55,North,357,6.3,6.3,36,0.00,,---,0.00,VWS V14.01,2013-05-11 08:58:00,
2013-05-11 04:03:00,53.6,27.3,27.55,North,357,6.3,6.3,36,0.00,,---,0.00,VWS V14.01,2013-05-11 09:03:00,
2013-05-11 04:08:00,53.1,26.8,27.55,North,7,5.4,6.3,36,0.00,,---,0.00,VWS V14.01,2013-05-11 09:08:00,
2013-05-11 04:13:00,52.5,26.4,27.55,North,0,5.4,5.8,36,0.00,,---,0.00,VWS V14.01,2013-05-11 09:13:00,
2013-05-11 04:18:00,52.3,26.2,27.55,North,357,6.3,6.3,36,0.00,,---,0.00,VWS V14.01,2013-05-11 09:18:00,
2013-05-11 04:23:00,52.0,25.9,27.55,North,357,6.7,7.2,36,0.00,,---,0.00,VWS V14.01,2013-05-11 09:23:00,
2013-05-11 04:28:00,51.6,25.6,27.55,North,353,5.8,6.3,36,0.00,,---,0.00,VWS V14.01,2013-05-11 09:28:00,
2013-05-11 04:33:00,51.4,25.4,27.58,North,0,4.0,6.3,36,0.00,,---,0.00,VWS V14.01,2013-05-11 09:33:00,
2013-05-11 04:38:00,51.1,25.1,27.58,North,357,5.8,5.8,36,0.00,,---,0.00,VWS V14.01,2013-05-11 09:38:00,
2013-05-11 04:43:00,50.7,24.8,27.58,North,357,5.8,5.8,36,0.00,,---,0.00,VWS V14.01,2013-05-11 09:43:00,
2013-05-11 04:48:00,50.4,24.4,27.58,North,0,6.3,6.3,36,0.00,,---,0.00,VWS V14.01,2013-05-11 09:48:00,
2013-05-11 04:53:00,50.2,24.3,27.58,NNW,342,5.8,5.8,36,0.00,,---,0.00,VWS V14.01,2013-05-11 09:53:00,
2013-05-11 04:58:00,49.8,24.6,27.58,North,357,5.4,5.8,37,0.00,,---,0.00,VWS V14.01,2013-05-11 09:58:00,
2013-05-11 05:03:00,49.5,24.3,27.58,North,5,3.6,5.8,37,0.00,,---,0.00,VWS V14.01,2013-05-11 10:03:00,
2013-05-11 05:08:00,49.1,24.0,27.58,North,357,4.9,5.4,37,0.00,,---,0.00,VWS V14.01,2013-05-11 10:08:00,
2013-05-11 05:13:00,49.1,24.0,27.58,North,0,5.8,5.8,37,0.00,,---,0.00,VWS V14.01,2013-05-11 10:13:00,
2013-05-11 05:18:00,48.9,23.8,27.58,North,0,4.9,5.4,37,0.00,,---,0.00,VWS V14.01,2013-05-11 10:18:00,
2013-05-11 05:23:00,48.6,23.5,27.58,North,353,4.9,4.9,37,0.00,,---,0.00,VWS V14.01,2013-05-11 10:23:00,
2013-05-11 05:28:00,48.2,23.2,27.58,North,0,4.0,4.9,37,0.00,,---,0.00,VWS V14.01,2013-05-11 10:28:00,
2013-05-11 05:33:00,47.8,22.9,27.61,North,0,4.0,4.0,37,0.00,,---,0.00,VWS V14.01,2013-05-11 10:33:00,
2013-05-11 05:38:00,47.1,22.2,27.61,North,0,4.0,4.0,37,0.00,,---,0.00,VWS V14.01,2013-05-11 10:38:00,
2013-05-11 05:43:00,46.6,21.7,27.61,North,0,3.1,4.0,37,0.00,,---,0.00,VWS V14.01,2013-05-11 10:43:00,
2013-05-11 05:48:00,46.0,21.9,27.61,North,0,3.1,3.1,38,0.00,,---,0.00,VWS V14.01,2013-05-11 10:48:00,
2013-05-11 05:53:00,46.2,22.0,27.61,North,357,5.4,5.4,38,0.00,,---,0.00,VWS V14.01,2013-05-11 10:53:00,
2013-05-11 05:58:00,46.2,22.0,27.61,North,0,3.6,3.6,38,0.00,,---,0.00,VWS V14.01,2013-05-11 10:58:00,
2013-05-11 06:03:00,45.5,21.4,27.61,NNW,338,4.0,4.0,38,0.00,,---,0.00,VWS V14.01,2013-05-11 11:03:00,
2013-05-11 06:07:00,45.9,21.7,27.61,North,353,3.6,4.0,38,0.00,,---,0.00,VWS V14.01,2013-05-11 11:07:00,
2013-05-11 06:12:00,46.0,21.9,27.61,North,353,4.9,5.8,38,0.00,,---,0.00,VWS V14.01,2013-05-11 11:12:00,
2013-05-11 06:17:00,46.6,21.7,27.61,NNW,346,5.4,5.4,37,0.00,,---,0.00,VWS V14.01,2013-05-11 11:17:00,
2013-05-11 06:23:00,46.4,21.6,27.61,NNW,343,3.6,4.9,37,0.00,,---,0.00,VWS V14.01,2013-05-11 11:23:00,
2013-05-11 06:28:00,46.0,21.9,27.61,North,353,4.0,4.0,38,0.00,,---,0.00,VWS V14.01,2013-05-11 11:28:00,
2013-05-11 06:32:00,45.7,21.5,27.64,NNW,334,3.1,4.0,38,0.00,,---,0.00,VWS V14.01,2013-05-11 11:32:00,
2013-05-11 06:37:00,45.5,21.4,27.64,NNW,340,3.1,4.0,38,0.00,,---,0.00,VWS V14.01,2013-05-11 11:37:00,
2013-05-11 06:42:00,45.5,21.4,27.64,NW,314,3.6,3.6,38,0.00,,---,0.00,VWS V14.01,2013-05-11 11:42:00,
2013-05-11 06:47:00,45.5,21.4,27.64,WNW,289,2.7,3.6,38,0.00,,---,0.00,VWS V14.01,2013-05-11 11:47:00,
2013-05-11 06:52:00,45.5,21.4,27.64,NW,315,3.1,3.6,38,0.00,,---,0.00,VWS V14.01,2013-05-11 11:52:00,
2013-05-11 06:57:00,46.0,21.9,27.64,NNW,328,2.7,3.1,38,0.00,,---,0.00,VWS V14.01,2013-05-11 11:57:00,
2013-05-11 07:02:00,46.8,21.9,27.67,North,353,3.1,3.6,37,0.00,,---,0.00,VWS V14.01,2013-05-11 12:02:00,
2013-05-11 07:07:00,47.8,22.9,27.67,North,353,3.6,3.6,37,0.00,,---,0.00,VWS V14.01,2013-05-11 12:07:00,
2013-05-11 07:12:00,48.7,23.6,27.67,North,349,3.6,5.8,37,0.00,,---,0.00,VWS V14.01,2013-05-11 12:12:00,
2013-05-11 07:17:00,49.5,24.3,27.67,North,357,5.4,5.4,37,0.00,,---,0.00,VWS V14.01,2013-05-11 12:17:00,
2013-05-11 07:22:00,50.7,24.8,27.67,North,0,5.8,5.8,36,0.00,,---,0.00,VWS V14.01,2013-05-11 12:22:00,
2013-05-11 07:27:00,51.4,25.4,27.67,North,349,5.8,5.8,36,0.00,,---,0.00,VWS V14.01,2013-05-11 12:27:00,
2013-05-11 07:32:00,51.3,25.2,27.67,NNW,337,4.0,4.0,36,0.00,,---,0.00,VWS V14.01,2013-05-11 12:32:00,
2013-05-11 07:37:00,52.5,26.4,27.67,North,0,4.0,4.0,36,0.00,,---,0.00,VWS V14.01,2013-05-11 12:37:00,
2013-05-11 07:42:00,52.5,26.4,27.67,North,353,3.6,4.9,36,0.00,,---,0.00,VWS V14.01,2013-05-11 12:42:00,
2013-05-11 07:47:00,52.3,26.2,27.67,NNW,346,4.0,6.3,36,0.00,,---,0.00,VWS V14.01,2013-05-11 12:47:00,
2013-05-11 07:52:00,54.3,28.0,27.67,NNW,337,4.0,5.8,36,0.00,,---,0.00,VWS V14.01,2013-05-11 12:52:00,
2013-05-11 07:57:00,54.5,28.1,27.70,NNW,348,4.9,5.8,36,0.00,,---,0.00,VWS V14.01,2013-05-11 12:57:00,
2013-05-11 08:02:00,53.2,27.0,27.70,North,353,6.3,8.7,36,0.00,,---,0.00,VWS V14.01,2013-05-11 13:02:00,
2013-05-11 08:07:00,54.0,27.6,27.70,North,350,6.3,6.3,36,0.00,,---,0.00,VWS V14.01,2013-05-11 13:07:00,
2013-05-11 08:12:00,54.1,27.8,27.70,North,357,7.2,8.1,36,0.00,,---,0.00,VWS V14.01,2013-05-11 13:12:00,
2013-05-11 08:17:00,54.5,28.1,27.70,North,6,5.8,6.3,36,0.00,,---,0.00,VWS V14.01,2013-05-11 13:17:00,
2013-05-11 08:22:00,54.7,28.3,27.70,North,0,4.0,7.2,36,0.00,,---,0.00,VWS V14.01,2013-05-11 13:22:00,
2013-05-11 08:27:00,54.9,28.4,27.70,North,6,5.8,7.2,36,0.00,,---,0.00,VWS V14.01,2013-05-11 13:27:00,
2013-05-11 08:32:00,55.9,28.7,27.70,North,7,5.8,5.8,35,0.00,,---,0.00,VWS V14.01,2013-05-11 13:32:00,
2013-05-11 08:37:00,55.9,28.7,27.70,North,357,5.8,5.8,35,0.00,,---,0.00,VWS V14.01,2013-05-11 13:37:00,
2013-05-11 08:42:00,55.6,28.4,27.70,North,353,5.4,7.6,35,0.00,,---,0.00,VWS V14.01,2013-05-11 13:42:00,
2013-05-11 08:47:00,55.6,28.4,27.70,North,353,6.3,6.3,35,0.00,,---,0.00,VWS V14.01,2013-05-11 13:47:00,
2013-05-11 08:52:00,55.9,28.7,27.70,North,11,6.3,6.3,35,0.00,,---,0.00,VWS V14.01,2013-05-11 13:52:00,
2013-05-11 08:57:00,56.7,29.3,27.70,North,353,7.6,8.1,35,0.00,,---,0.00,VWS V14.01,2013-05-11 13:57:00,
2013-05-11 09:02:00,56.8,29.5,27.70,North,10,6.3,6.3,35,0.00,,---,0.00,VWS V14.01,2013-05-11 14:02:00,
2013-05-11 09:07:00,57.0,29.7,27.70,North,0,7.6,7.6,35,0.00,,---,0.00,VWS V14.01,2013-05-11 14:07:00,
2013-05-11 09:12:00,56.8,29.5,27.70,North,7,6.3,6.3,35,0.00,,---,0.00,VWS V14.01,2013-05-11 14:12:00,
2013-05-11 09:17:00,57.0,29.7,27.70,North,9,5.8,5.8,35,0.00,,---,0.00,VWS V14.01,2013-05-11 14:17:00,
2013-05-11 09:22:00,56.8,29.5,27.70,North,0,9.2,9.2,35,0.00,,---,0.00,VWS V14.01,2013-05-11 14:22:00,
2013-05-11 09:27:00,56.5,29.2,27.70,North,0,10.1,10.1,35,0.00,,---,0.00,VWS V14.01,2013-05-11 14:27:00,
2013-05-11 09:32:00,57.6,30.1,27.70,North,357,7.6,7.6,35,0.00,,---,0.00,VWS V14.01,2013-05-11 14:32:00,
2013-05-11 09:37:00,57.7,30.3,27.70,North,357,8.1,8.1,35,0.00,,---,0.00,VWS V14.01,2013-05-11 14:37:00,
2013-05-11 09:42:00,58.5,30.9,27.70,North,7,7.6,7.6,35,0.00,,---,0.00,VWS V14.01,2013-05-11 14:42:00,
2013-05-11 09:47:00,59.4,31.7,27.70,North,3,6.3,8.1,35,0.00,,---,0.00,VWS V14.01,2013-05-11 14:47:00,
2013-05-11 09:52:00,59.7,32.0,27.70,North,353,7.6,7.6,35,0.00,,---,0.00,VWS V14.01,2013-05-11 14:52:00,
2013-05-11 09:57:00,59.7,32.0,27.70,North,357,10.1,10.1,35,0.00,,---,0.00,VWS V14.01,2013-05-11 14:57:00,
2013-05-11 10:02:00,59.0,31.4,27.70,North,357,6.3,6.7,35,0.00,,---,0.00,VWS V14.01,2013-05-11 15:02:00,
2013-05-11 10:07:00,59.4,31.7,27.70,North,0,8.3,8.7,35,0.00,,---,0.00,VWS V14.01,2013-05-11 15:07:00,
2013-05-11 10:12:00,59.2,31.6,27.70,North,0,8.3,8.3,35,0.00,,---,0.00,VWS V14.01,2013-05-11 15:12:00,
2013-05-11 10:17:00,59.4,31.7,27.70,North,353,10.5,11.0,35,0.00,,---,0.00,VWS V14.01,2013-05-11 15:17:00,
2013-05-11 10:22:00,60.4,32.7,27.70,North,3,10.1,10.1,35,0.00,,---,0.00,VWS V14.01,2013-05-11 15:22:00,
2013-05-11 10:27:00,58.6,31.1,27.70,North,353,8.1,8.7,35,0.00,,---,0.00,VWS V14.01,2013-05-11 15:27:00,
2013-05-11 10:32:00,61.0,32.4,27.70,North,357,7.6,7.6,34,0.00,,---,0.00,VWS V14.01,2013-05-11 15:32:00,
2013-05-11 10:37:00,60.8,32.3,27.70,North,7,7.6,8.1,34,0.00,,---,0.00,VWS V14.01,2013-05-11 15:37:00,
2013-05-11 10:42:00,59.9,32.2,27.70,North,10,6.3,8.1,35,0.00,,---,0.00,VWS V14.01,2013-05-11 15:42:00,
2013-05-11 10:47:00,60.4,32.7,27.70,North,357,5.8,5.8,35,0.00,,---,0.00,VWS V14.01,2013-05-11 15:47:00,
2013-05-11 10:52:00,61.9,33.2,27.70,NNW,333,8.1,8.1,34,0.00,,---,0.00,VWS V14.01,2013-05-11 15:52:00,
2013-05-11 10:57:00,62.6,33.9,27.70,North,7,4.0,4.0,34,0.00,,---,0.00,VWS V14.01,2013-05-11 15:57:00,
2013-05-11 11:02:00,62.1,33.4,27.70,North,11,8.1,8.1,34,0.00,,---,0.00,VWS V14.01,2013-05-11 16:02:00,
2013-05-11 11:07:00,63.1,34.3,27.70,North,357,5.4,8.3,34,0.00,,---,0.00,VWS V14.01,2013-05-11 16:07:00,
2013-05-11 11:12:00,63.5,34.7,27.70,North,353,7.6,7.6,34,0.00,,---,0.00,VWS V14.01,2013-05-11 16:12:00,
2013-05-11 11:17:00,63.5,34.7,27.70,North,0,8.3,8.3,34,0.00,,---,0.00,VWS V14.01,2013-05-11 16:17:00,
2013-05-11 11:22:00,63.9,35.0,27.70,North,0,8.7,8.7,34,0.00,,---,0.00,VWS V14.01,2013-05-11 16:22:00,
2013-05-11 11:27:00,63.3,34.5,27.70,North,0,5.8,8.1,34,0.00,,---,0.00,VWS V14.01,2013-05-11 16:27:00,
2013-05-11 11:32:00,63.5,34.7,27.70,North,349,6.3,8.7,34,0.00,,---,0.00,VWS V14.01,2013-05-11 16:32:00,
2013-05-11 11:37:00,62.6,33.9,27.70,NNE,12,6.3,6.3,34,0.00,,---,0.00,VWS V14.01,2013-05-11 16:37:00,
2013-05-11 11:42:00,62.6,33.9,27.70,North,353,5.8,5.8,34,0.00,,---,0.00,VWS V14.01,2013-05-11 16:42:00,
2013-05-11 11:47:00,62.4,33.7,27.70,North,0,11.0,12.3,34,0.00,,---,0.00,VWS V14.01,2013-05-11 16:47:00,
2013-05-11 11:52:00,63.3,34.5,27.70,North,9,8.1,8.1,34,0.00,,---,0.00,VWS V14.01,2013-05-11 16:52:00,
2013-05-11 11:57:00,65.1,35.3,27.70,NNW,338,8.3,8.3,33,0.00,,---,0.00,VWS V14.01,2013-05-11 16:57:00,
2013-05-11 12:02:00,64.2,35.3,27.70,NNW,336,10.5,10.5,34,0.00,,---,0.00,VWS V14.01,2013-05-11 17:02:00,
2013-05-11 12:07:00,64.4,34.7,27.70,NNW,340,8.1,8.7,33,0.00,,---,0.00,VWS V14.01,2013-05-11 17:07:00,
2013-05-11 12:12:00,63.5,34.7,27.70,North,349,6.3,8.1,34,0.00,,---,0.00,VWS V14.01,2013-05-11 17:12:00,
2013-05-11 12:17:00,64.2,35.3,27.70,North,0,8.3,8.3,34,0.00,,---,0.00,VWS V14.01,2013-05-11 17:17:00,
2013-05-11 12:22:00,65.7,35.8,27.70,NNW,340,8.1,8.7,33,0.00,,---,0.00,VWS V14.01,2013-05-11 17:22:00,
2013-05-11 12:27:00,63.9,35.0,27.70,North,353,8.1,8.1,34,0.00,,---,0.00,VWS V14.01,2013-05-11 17:27:00,
2013-05-11 12:32:00,65.3,35.5,27.70,NNW,348,5.4,5.4,33,0.00,,---,0.00,VWS V14.01,2013-05-11 17:32:00,
2013-05-11 12:37:00,66.2,36.3,27.70,North,357,5.8,5.8,33,0.00,,---,0.00,VWS V14.01,2013-05-11 17:37:00,
2013-05-11 12:42:00,65.7,35.8,27.70,North,357,5.4,5.8,33,0.00,,---,0.00,VWS V14.01,2013-05-11 17:42:00,
2013-05-11 12:47:00,66.0,36.1,27.70,North,0,5.4,7.6,33,0.00,,---,0.00,VWS V14.01,2013-05-11 17:47:00,
2013-05-11 12:52:00,65.8,36.0,27.70,North,357,5.8,7.6,33,0.00,,---,0.00,VWS V14.01,2013-05-11 17:52:00,
2013-05-11 12:57:00,66.2,36.3,27.70,North,4,8.1,8.1,33,0.00,,---,0.00,VWS V14.01,2013-05-11 17:57:00,
2013-05-11 13:02:00,65.1,35.3,27.67,North,0,5.8,6.7,33,0.00,,---,0.00,VWS V14.01,2013-05-11 18:02:00,
2013-05-11 13:07:00,66.2,36.3,27.67,North,0,9.2,9.2,33,0.00,,---,0.00,VWS V14.01,2013-05-11 18:07:00,
2013-05-11 13:12:00,65.8,36.0,27.67,North,4,7.6,7.6,33,0.00,,---,0.00,VWS V14.01,2013-05-11 18:12:00,
2013-05-11 13:17:00,66.6,36.6,27.67,NNW,343,4.0,11.4,33,0.00,,---,0.00,VWS V14.01,2013-05-11 18:17:00,
2013-05-11 13:22:00,65.8,36.0,27.67,NW,311,8.7,15.4,33,0.00,,---,0.00,VWS V14.01,2013-05-11 18:22:00,
2013-05-11 13:27:00,66.4,36.4,27.67,NNE,13,5.4,6.3,33,0.00,,---,0.00,VWS V14.01,2013-05-11 18:27:00,
2013-05-11 13:32:00,66.0,36.1,27.67,NNE,16,5.4,8.3,33,0.00,,---,0.00,VWS V14.01,2013-05-11 18:32:00,
2013-05-11 13:37:00,65.5,35.6,27.67,NNW,335,7.6,7.6,33,0.00,,---,0.00,VWS V14.01,2013-05-11 18:37:00,
2013-05-11 13:42:00,66.9,36.9,27.67,North,9,8.1,8.7,33,0.00,,---,0.00,VWS V14.01,2013-05-11 18:42:00,
2013-05-11 13:47:00,66.7,36.8,27.67,North,353,7.6,7.6,33,0.00,,---,0.00,VWS V14.01,2013-05-11 18:47:00,
2013-05-11 13:52:00,66.7,36.8,27.67,NW,320,5.8,8.7,33,0.00,,---,0.00,VWS V14.01,2013-05-11 18:52:00,
2013-05-11 13:57:00,66.7,36.8,27.67,NNW,344,8.7,10.1,33,0.00,,---,0.00,VWS V14.01,2013-05-11 18:57:00,
2013-05-11 14:02:00,66.9,36.9,27.67,NNE,15,7.6,7.6,33,0.00,,---,0.00,VWS V14.01,2013-05-11 19:02:00,
2013-05-11 14:07:00,67.1,37.1,27.67,North,357,12.3,12.3,33,0.00,,---,0.00,VWS V14.01,2013-05-11 19:07:00,
2013-05-11 14:12:00,67.8,37.7,27.67,NW,321,10.1,10.5,33,0.00,,---,0.00,VWS V14.01,2013-05-11 19:12:00,
2013-05-11 14:17:00,68.2,38.0,27.67,NNW,333,5.4,5.4,33,0.00,,---,0.00,VWS V14.01,2013-05-11 19:17:00,
2013-05-11 14:22:00,68.0,37.8,27.67,North,1,3.1,6.3,33,0.00,,---,0.00,VWS V14.01,2013-05-11 19:22:00,
2013-05-11 14:27:00,68.2,38.0,27.67,NNW,333,6.3,6.3,33,0.00,,---,0.00,VWS V14.01,2013-05-11 19:27:00,
2013-05-11 14:32:00,68.7,38.5,27.67,NW,325,8.7,8.7,33,0.00,,---,0.00,VWS V14.01,2013-05-11 19:32:00,
2013-05-11 14:37:00,69.1,38.8,27.67,North,357,6.3,7.2,33,0.00,,---,0.00,VWS V14.01,2013-05-11 19:37:00,
2013-05-11 14:42:00,68.4,38.2,27.67,NNW,348,8.3,8.3,33,0.00,,---,0.00,VWS V14.01,2013-05-11 19:42:00,
2013-05-11 14:47:00,68.4,38.2,27.67,NW,317,7.6,7.6,33,0.00,,---,0.00,VWS V14.01,2013-05-11 19:47:00,
2013-05-11 14:52:00,67.8,37.7,27.67,WNW,294,8.7,8.7,33,0.00,,---,0.00,VWS V14.01,2013-05-11 19:52:00,
2013-05-11 14:57:00,68.4,38.2,27.67,North,0,6.3,11.0,33,0.00,,---,0.00,VWS V14.01,2013-05-11 19:57:00,
2013-05-11 15:02:00,70.2,39.0,27.67,NNW,330,7.6,7.6,32,0.00,,---,0.00,VWS V14.01,2013-05-11 20:02:00,
2013-05-11 15:07:00,68.7,38.5,27.67,West,272,4.0,4.0,33,0.00,,---,0.00,VWS V14.01,2013-05-11 20:07:00,
2013-05-11 15:12:00,68.7,38.5,27.67,NW,318,3.6,6.3,33,0.00,,---,0.00,VWS V14.01,2013-05-11 20:12:00,
2013-05-11 15:17:00,68.9,38.6,27.67,WNW,291,12.8,12.8,33,0.00,,---,0.00,VWS V14.01,2013-05-11 20:17:00,
2013-05-11 15:22:00,69.6,39.3,27.67,NNW,344,3.6,3.6,33,0.00,,---,0.00,VWS V14.01,2013-05-11 20:22:00,
2013-05-11 15:27:00,68.2,38.0,27.64,NNW,338,9.2,9.2,33,0.00,,---,0.00,VWS V14.01,2013-05-11 20:27:00,
2013-05-11 15:32:00,68.7,38.5,27.64,NW,321,8.3,8.3,33,0.00,,---,0.00,VWS V14.01,2013-05-11 20:32:00,
2013-05-11 15:37:00,70.0,38.8,27.64,West,279,6.3,6.3,32,0.00,,---,0.00,VWS V14.01,2013-05-11 20:37:00,
2013-05-11 15:42:00,68.7,38.5,27.64,NW,319,8.1,8.7,33,0.00,,---,0.00,VWS V14.01,2013-05-11 20:42:00,
2013-05-11 15:47:00,68.4,38.2,27.64,North,1,10.1,10.1,33,0.00,,---,0.00,VWS V14.01,2013-05-11 20:47:00,
2013-05-11 15:52:00,69.4,39.1,27.64,North,9,3.6,3.6,33,0.00,,---,0.00,VWS V14.01,2013-05-11 20:52:00,
2013-05-11 15:57:00,70.5,39.3,27.64,North,0,8.1,8.1,32,0.00,,---,0.00,VWS V14.01,2013-05-11 20:57:00,
2013-05-11 16:02:00,69.3,39.0,27.64,WNW,291,11.0,11.0,33,0.00,,---,0.00,VWS V14.01,2013-05-11 21:02:00,
2013-05-11 16:07:00,70.7,39.4,27.64,NW,315,3.1,3.1,32,0.00,,---,0.00,VWS V14.01,2013-05-11 21:07:00,
2013-05-11 16:12:00,71.6,40.2,27.64,NNW,338,4.0,4.0,32,0.00,,---,0.00,VWS V14.01,2013-05-11 21:12:00,
2013-05-11 16:17:00,70.3,39.1,27.64,North,357,3.1,3.1,32,0.00,,---,0.00,VWS V14.01,2013-05-11 21:17:00,
2013-05-11 16:22:00,70.7,39.4,27.64,North,0,2.7,2.7,32,0.00,,---,0.00,VWS V14.01,2013-05-11 21:22:00,
2013-05-11 16:27:00,73.2,41.6,27.64,NNW,328,7.6,7.6,32,0.00,,---,0.00,VWS V14.01,2013-05-11 21:27:00,
2013-05-11 16:32:00,71.6,40.2,27.64,WNW,302,5.4,7.6,32,0.00,,---,0.00,VWS V14.01,2013-05-11 21:32:00,
2013-05-11 16:37:00,71.2,39.9,27.64,NNW,343,2.7,2.7,32,0.00,,---,0.00,VWS V14.01,2013-05-11 21:37:00,
2013-05-11 16:42:00,72.9,41.3,27.64,NW,319,6.3,6.3,32,0.00,,---,0.00,VWS V14.01,2013-05-11 21:42:00,
2013-05-11 16:47:00,72.0,40.5,27.61,NNW,339,7.2,7.2,32,0.00,,---,0.00,VWS V14.01,2013-05-11 21:47:00,
2013-05-11 16:52:00,70.7,39.4,27.61,NNW,346,5.8,5.8,32,0.00,,---,0.00,VWS V14.01,2013-05-11 21:52:00,
2013-05-11 16:57:00,71.2,39.9,27.61,North,0,2.7,3.1,32,0.00,,---,0.00,VWS V14.01,2013-05-11 21:57:00,
2013-05-11 17:02:00,72.1,40.7,27.61,NNW,328,4.0,4.0,32,0.00,,---,0.00,VWS V14.01,2013-05-11 22:02:00,
2013-05-11 17:07:00,69.8,38.6,27.61,NNW,344,8.3,8.3,32,0.00,,---,0.00,VWS V14.01,2013-05-11 22:07:00,
2013-05-11 17:12:00,70.2,39.0,27.61,NW,319,8.1,8.7,32,0.00,,---,0.00,VWS V14.01,2013-05-11 22:12:00,
2013-05-11 17:17:00,68.5,38.3,27.61,NNE,22,5.8,5.8,33,0.00,,---,0.00,VWS V14.01,2013-05-11 22:17:00,
2013-05-11 17:22:00,69.3,39.0,27.61,North,0,3.1,3.1,33,0.00,,---,0.00,VWS V14.01,2013-05-11 22:22:00,
2013-05-11 17:27:00,70.0,38.8,27.61,NNW,341,8.7,9.6,32,0.00,,---,0.00,VWS V14.01,2013-05-11 22:27:00,
2013-05-11 17:32:00,70.9,39.6,27.61,NW,304,4.0,4.0,32,0.00,,---,0.00,VWS V14.01,2013-05-11 22:32:00,
2013-05-11 17:37:00,70.5,39.3,27.61,NNW,344,5.4,5.4,32,0.00,,---,0.00,VWS V14.01,2013-05-11 22:37:00,
2013-05-11 17:42:00,70.3,39.1,27.61,North,353,3.1,4.9,32,0.00,,---,0.00,VWS V14.01,2013-05-11 22:42:00,
2013-05-11 17:47:00,70.3,39.1,27.61,NNW,345,8.3,8.3,32,0.00,,---,0.00,VWS V14.01,2013-05-11 22:47:00,
2013-05-11 17:52:00,69.8,38.6,27.61,NNW,332,7.6,7.6,32,0.00,,---,0.00,VWS V14.01,2013-05-11 22:52:00,
2013-05-11 17:57:00,70.0,38.8,27.61,NNW,337,5.4,5.4,32,0.00,,---,0.00,VWS V14.01,2013-05-11 22:57:00,
2013-05-11 18:02:00,69.8,38.6,27.61,North,0,5.4,5.4,32,0.00,,---,0.00,VWS V14.01,2013-05-11 23:02:00,
2013-05-11 18:07:00,69.3,39.0,27.61,North,353,3.1,3.6,33,0.00,,---,0.00,VWS V14.01,2013-05-11 23:07:00,
2013-05-11 18:12:00,68.7,38.5,27.61,North,0,4.0,4.0,33,0.00,,---,0.00,VWS V14.01,2013-05-11 23:12:00,
2013-05-11 18:17:00,68.5,38.3,27.61,NNW,343,5.4,5.8,33,0.00,,---,0.00,VWS V14.01,2013-05-11 23:17:00,
2013-05-11 18:22:00,67.5,37.4,27.61,NE,49,5.8,5.8,33,0.00,,---,0.00,VWS V14.01,2013-05-11 23:22:00,
2013-05-11 18:27:00,67.6,37.5,27.61,North,357,4.0,4.0,33,0.00,,---,0.00,VWS V14.01,2013-05-11 23:27:00,
2013-05-11 18:32:00,68.0,37.8,27.61,North,357,6.3,6.3,33,0.00,,---,0.00,VWS V14.01,2013-05-11 23:32:00,
2013-05-11 18:37:00,68.4,38.2,27.61,North,353,4.0,4.0,33,0.00,,---,0.00,VWS V14.01,2013-05-11 23:37:00,
2013-05-11 18:42:00,67.8,37.7,27.61,North,7,3.6,3.6,33,0.00,,---,0.00,VWS V14.01,2013-05-11 23:42:00,
2013-05-11 18:47:00,67.5,37.4,27.61,North,357,3.6,3.6,33,0.00,,---,0.00,VWS V14.01,2013-05-11 23:47:00,
2013-05-11 18:52:00,67.3,37.2,27.61,NNW,342,5.4,5.4,33,0.00,,---,0.00,VWS V14.01,2013-05-11 23:52:00,
2013-05-11 18:57:00,66.7,36.8,27.61,North,357,4.0,4.0,33,0.00,,---,0.00,VWS V14.01,2013-05-11 23:57:00,
2013-05-11 19:02:00,66.4,36.4,27.61,NE,38,3.6,3.6,33,0.00,,---,0.00,VWS V14.01,2013-05-12 00:02:00,
2013-05-11 19:07:00,66.4,36.4,27.61,North,357,2.7,4.0,33,0.00,,---,0.00,VWS V14.01,2013-05-12 00:07:00,
2013-05-11 19:12:00,66.0,36.1,27.61,North,357,4.0,4.0,33,0.00,,---,0.00,VWS V14.01,2013-05-12 00:12:00,
2013-05-11 19:17:00,65.7,35.8,27.61,North,1,4.0,4.0,33,0.00,,---,0.00,VWS V14.01,2013-05-12 00:17:00,
2013-05-11 19:22:00,66.9,36.9,27.61,North,349,2.7,4.0,33,0.00,,---,0.00,VWS V14.01,2013-05-12 00:22:00,
2013-05-11 19:27:00,65.5,35.6,27.61,North,5,3.1,3.1,33,0.00,,---,0.00,VWS V14.01,2013-05-12 00:27:00,
2013-05-11 19:32:00,64.9,35.2,27.61,NNE,23,4.0,4.0,33,0.00,,---,0.00,VWS V14.01,2013-05-12 00:32:00,
2013-05-11 19:37:00,64.2,35.3,27.61,NNE,22,4.0,4.0,34,0.00,,---,0.00,VWS V14.01,2013-05-12 00:37:00,
2013-05-11 19:42:00,63.5,34.7,27.61,NE,34,3.6,4.9,34,0.00,,---,0.00,VWS V14.01,2013-05-12 00:42:00,
2013-05-11 19:47:00,63.1,34.3,27.58,ENE,67,4.9,4.9,34,0.00,,---,0.00,VWS V14.01,2013-05-12 00:47:00,
2013-05-11 19:52:00,62.4,33.7,27.58,ENE,60,5.8,5.8,34,0.00,,---,0.00,VWS V14.01,2013-05-12 00:52:00,
2013-05-11 19:57:00,61.9,33.2,27.58,NE,52,5.8,5.8,34,0.00,,---,0.00,VWS V14.01,2013-05-12 00:57:00,
2013-05-11 20:02:00,61.3,32.8,27.58,NNE,33,5.4,5.4,34,0.00,,---,0.00,VWS V14.01,2013-05-12 01:02:00,
2013-05-11 20:07:00,61.0,32.4,27.58,NE,41,5.4,5.4,34,0.00,,---,0.00,VWS V14.01,2013-05-12 01:07:00,
2013-05-11 20:12:00,60.1,32.4,27.58,NE,47,5.4,5.8,35,0.00,,---,0.00,VWS V14.01,2013-05-12 01:12:00,
2013-05-11 20:17:00,59.5,31.9,27.58,NE,47,7.6,7.6,35,0.00,,---,0.00,VWS V14.01,2013-05-12 01:17:00,
2013-05-11 20:22:00,59.2,31.6,27.58,NE,50,7.6,7.6,35,0.00,,---,0.00,VWS V14.01,2013-05-12 01:22:00,
2013-05-11 20:27:00,58.3,30.8,27.58,NE,50,7.6,7.6,35,0.00,,---,0.00,VWS V14.01,2013-05-12 01:27:00,
2013-05-11 20:32:00,57.4,30.0,27.58,NE,51,7.6,7.6,35,0.00,,---,0.00,VWS V14.01,2013-05-12 01:32:00,
2013-05-11 20:37:00,56.8,29.5,27.58,NE,48,7.6,7.6,35,0.00,,---,0.00,VWS V14.01,2013-05-12 01:37:00,
2013-05-11 20:42:00,56.8,29.5,27.58,NE,51,8.7,8.7,35,0.00,,---,0.00,VWS V14.01,2013-05-12 01:42:00,
2013-05-11 20:47:00,56.5,29.2,27.58,NE,47,8.1,8.1,35,0.00,,---,0.00,VWS V14.01,2013-05-12 01:47:00,
2013-05-11 20:52:00,55.8,28.5,27.58,NE,53,7.6,8.1,35,0.00,,---,0.00,VWS V14.01,2013-05-12 01:52:00,
2013-05-11 20:57:00,55.0,28.6,27.58,NE,48,8.3,8.3,36,0.00,,---,0.00,VWS V14.01,2013-05-12 01:57:00,
2013-05-11 21:02:00,54.7,28.3,27.58,NE,52,8.3,8.3,36,0.00,,---,0.00,VWS V14.01,2013-05-12 02:02:00,
2013-05-11 21:07:00,54.1,27.8,27.58,NE,51,7.6,7.6,36,0.00,,---,0.00,VWS V14.01,2013-05-12 02:07:00,
2013-05-11 21:12:00,53.1,26.8,27.58,NE,52,5.8,5.8,36,0.00,,---,0.00,VWS V14.01,2013-05-12 02:12:00,
2013-05-11 21:17:00,51.3,25.2,27.58,NE,56,3.6,3.6,36,0.00,,---,0.00,VWS V14.01,2013-05-12 02:17:00,
2013-05-11 21:22:00,50.5,24.6,27.58,East,88,3.6,4.9,36,0.00,,---,0.00,VWS V14.01,2013-05-12 02:22:00,
2013-05-11 21:27:00,50.2,24.3,27.58,ENE,75,3.1,4.0,36,0.00,,---,0.00,VWS V14.01,2013-05-12 02:27:00,
2013-05-11 21:32:00,50.0,24.1,27.58,ENE,67,4.0,4.0,36,0.00,,---,0.00,VWS V14.01,2013-05-12 02:32:00,
2013-05-11 21:37:00,49.5,24.3,27.58,ENE,57,3.1,3.1,37,0.00,,---,0.00,VWS V14.01,2013-05-12 02:37:00,
2013-05-11 21:42:00,49.8,24.6,27.58,East,86,3.1,3.1,37,0.00,,---,0.00,VWS V14.01,2013-05-12 02:42:00,
2013-05-11 21:47:00,49.3,24.1,27.58,ESE,110,4.0,4.0,37,0.00,,---,0.00,VWS V14.01,2013-05-12 02:47:00,
2013-05-11 21:52:00,48.7,23.6,27.58,ESE,116,3.6,3.6,37,0.00,,---,0.00,VWS V14.01,2013-05-12 02:52:00,
2013-05-11 21:57:00,48.0,23.0,27.58,ESE,116,3.1,3.1,37,0.00,,---,0.00,VWS V14.01,2013-05-12 02:57:00,
2013-05-11 22:02:00,48.6,23.5,27.58,East,81,3.6,4.0,37,0.00,,---,0.00,VWS V14.01,2013-05-12 03:02:00,
2013-05-11 22:07:00,47.8,22.9,27.58,ENE,76,3.1,3.1,37,0.00,,---,0.00,VWS V14.01,2013-05-12 03:07:00,
2013-05-11 22:12:00,48.4,23.3,27.58,East,83,4.0,4.5,37,0.00,,---,0.00,VWS V14.01,2013-05-12 03:12:00,
2013-05-11 22:17:00,48.7,23.6,27.61,East,83,4.5,4.5,37,0.00,,---,0.00,VWS V14.01,2013-05-12 03:17:00,
2013-05-11 22:22:00,48.9,23.8,27.61,ENE,74,3.6,3.6,37,0.00,,---,0.00,VWS V14.01,2013-05-12 03:22:00,
2013-05-11 22:27:00,48.9,23.8,27.61,ENE,77,2.7,3.6,37,0.00,,---,0.00,VWS V14.01,2013-05-12 03:27:00,
2013-05-11 22:32:00,48.4,23.3,27.61,East,86,4.0,4.0,37,0.00,,---,0.00,VWS V14.01,2013-05-12 03:32:00,
2013-05-11 22:37:00,47.8,22.9,27.61,ESE,111,3.1,3.1,37,0.00,,---,0.00,VWS V14.01,2013-05-12 03:37:00,
2013-05-11 22:42:00,45.9,21.7,27.61,ESE,106,2.7,2.7,38,0.00,,---,0.00,VWS V14.01,2013-05-12 03:42:00,
2013-05-11 22:47:00,44.2,20.3,27.61,ESE,105,2.7,2.7,38,0.00,,---,0.00,VWS V14.01,2013-05-12 03:47:00,
2013-05-11 22:52:00,45.3,21.2,27.61,East,84,3.6,4.0,38,0.00,,---,0.00,VWS V14.01,2013-05-12 03:52:00,
2013-05-11 22:57:00,45.9,21.7,27.61,East,89,3.1,3.6,38,0.00,,---,0.00,VWS V14.01,2013-05-12 03:57:00,
2013-05-11 23:01:00,45.5,21.4,27.61,ESE,102,3.1,3.1,38,0.00,,---,0.00,VWS V14.01,2013-05-12 04:01:00,
2013-05-11 23:06:00,46.0,21.9,27.61,East,79,3.1,3.1,38,0.00,,---,0.00,VWS V14.01,2013-05-12 04:06:00,
2013-05-11 23:11:00,45.1,21.1,27.61,ENE,68,2.7,3.1,38,0.00,,---,0.00,VWS V14.01,2013-05-12 04:11:00,
2013-05-11 23:16:00,45.7,21.5,27.61,ENE,72,2.7,2.7,38,0.00,,---,0.00,VWS V14.01,2013-05-12 04:16:00,
2013-05-11 23:21:00,45.1,21.1,27.61,NE,52,4.5,4.9,38,0.00,,---,0.00,VWS V14.01,2013-05-12 04:21:00,
2013-05-11 23:26:00,44.8,20.7,27.61,ENE,59,2.7,3.1,38,0.00,,---,0.00,VWS V14.01,2013-05-12 04:26:00,
2013-05-11 23:31:00,44.6,20.6,27.58,ENE,61,3.1,3.1,38,0.00,,---,0.00,VWS V14.01,2013-05-12 04:31:00,
2013-05-11 23:36:00,44.8,20.7,27.58,NE,49,3.6,4.9,38,0.00,,---,0.00,VWS V14.01,2013-05-12 04:36:00,
2013-05-11 23:41:00,44.6,20.6,27.58,ENE,66,3.6,3.6,38,0.00,,---,0.00,VWS V14.01,2013-05-12 04:41:00,
2013-05-11 23:46:00,43.9,19.9,27.58,East,95,2.7,2.7,38,0.00,,---,0.00,VWS V14.01,2013-05-12 04:46:00,
2013-05-11 23:51:00,44.6,20.6,27.58,East,90,3.1,3.1,38,0.00,,---,0.00,VWS V14.01,2013-05-12 04:51:00,
2013-05-11 23:56:00,45.0,20.9,27.58,East,82,3.6,3.6,38,0.00,,---,0.00,VWS V14.01,2013-05-12 04:56:00,